Aérodrome :
LOGIN :

S'inscrire | Disclaimer

   EN    FR    IT 

 










Légende :    VFR   VFR Marginal   IFR   IFR Intensif   IFR Très Intensif
Visi : 
Plafond : 
>= 8 km
>= 3000ft
5 à 8 km
1000 à 3000 ft
1500m à 5 km
500 à 1000 ft
800 à 1500m
200 à 500 ft
< 800m
< 200 ft
Symboles :   Orages  Brouillard  Fortes neiges  Fortes précipitations  Vent > 20 kt
SIGMETs :   Divers  Orages  Givrage  Turbulence  Onde Orograph.  Cendres Volcan.






- Altitude de l'aérodrome : 364 ft


LFAQ - Albert Bray

DERNIER METAR :
  • 240230Z AUTO VRB02KT 4300 BR OVC004 01/01 Q1024

METARs EXPIRÉS :
  • 240200Z AUTO 11003KT 080V170 4600 BR OVC004 01/01 Q1024
  • 240130Z AUTO 12004KT 090V150 5000 BR OVC004 01/01 Q1024
  • 240100Z AUTO VRB02KT 4900 BR OVC004 01/01 Q1025
  • 240030Z AUTO VRB03KT 4100 -DZ BR OVC003 01/01 Q1025
  • 240000Z AUTO VRB01KT 2000 -DZ BR OVC002 01/01 Q1025

Prévision TAF périmée.



MET'MAP, la Météo Aéronautique d'un coup d'oeil ! - Copyright ORBIFLY Décembre 2007 - Disclaimer

ORBIFLY MET'MAP TEAM :

Programmation & Développement : Alexandra Zaïnal
Sur une idée originale de : Baudouin d'Aumeries
Assistance à la programmation : Marc-Olivier Méhu
Soutien technique & logistique : Manuel Goepfert

Contact : metmap@orbifly.com




SOURCES & CREDITS :

   NOAA